Terminal Aerodrome Forecast
Issued by NWS Topeka, KS

Home | Current Version | Previous Version | Graphics & Text | Print | Product List | Glossary On
Versions: 1 2 3 4 5 6 7 8 9 10 11 12 13 14 15 16 17 18 19 20 21 22 23 24 25 26 27
299
FTUS43 KTOP 262034 AAC
TAFTOP
TAF AMD
KTOP 262034Z 2621/2718 11012G20KT P6SM VCTS BKN035CB
      TEMPO 2621/2701 VRB20G40KT 2SM TSRA BR BKN030CB
     FM271100 16011KT P6SM BKN040=

USA.gov is the U.S. government's official web portal to all federal, state and local government web resources and services.